sensor_id;sensor_type;location;lat;lon;timestamp;P1;durP1;ratioP1;P2;durP2;ratioP2
26920;SDS011;14483;47.844;9.660;2022-08-19T00:01:09;11.13;;;7.50;;
26920;SDS011;14483;47.844;9.660;2022-08-19T00:03:36;11.43;;;7.68;;
26920;SDS011;14483;47.844;9.660;2022-08-19T00:06:03;10.23;;;7.05;;
26920;SDS011;14483;47.844;9.660;2022-08-19T00:08:29;12.30;;;9.10;;
26920;SDS011;14483;47.844;9.660;2022-08-19T00:10:56;13.48;;;9.13;;
26920;SDS011;14483;47.844;9.660;2022-08-19T00:13:24;12.98;;;9.68;;
26920;SDS011;14483;47.844;9.660;2022-08-19T00:15:51;12.02;;;9.13;;
26920;SDS011;14483;47.844;9.660;2022-08-19T00:18:18;10.90;;;8.63;;
26920;SDS011;14483;47.844;9.660;2022-08-19T00:20:44;10.20;;;7.78;;
26920;SDS011;14483;47.844;9.660;2022-08-19T00:23:10;9.63;;;7.68;;
26920;SDS011;14483;47.844;9.660;2022-08-19T00:25:37;11.75;;;7.90;;
26920;SDS011;14483;47.844;9.660;2022-08-19T00:28:04;9.40;;;7.35;;
26920;SDS011;14483;47.844;9.660;2022-08-19T00:30:32;11.90;;;8.30;;
26920;SDS011;14483;47.844;9.660;2022-08-19T00:32:58;13.18;;;8.07;;
26920;SDS011;14483;47.844;9.660;2022-08-19T00:35:25;10.65;;;8.10;;
26920;SDS011;14483;47.844;9.660;2022-08-19T00:37:52;14.05;;;8.80;;
26920;SDS011;14483;47.844;9.660;2022-08-19T00:40:19;12.15;;;9.45;;
26920;SDS011;14483;47.844;9.660;2022-08-19T00:42:46;12.82;;;10.43;;
26920;SDS011;14483;47.844;9.660;2022-08-19T00:45:14;15.27;;;10.95;;
26920;SDS011;14483;47.844;9.660;2022-08-19T00:47:44;13.27;;;10.80;;
26920;SDS011;14483;47.844;9.660;2022-08-19T00:50:11;13.32;;;11.07;;
26920;SDS011;14483;47.844;9.660;2022-08-19T00:52:39;18.35;;;12.52;;
26920;SDS011;14483;47.844;9.660;2022-08-19T00:55:09;15.02;;;11.63;;
26920;SDS011;14483;47.844;9.660;2022-08-19T00:57:37;15.13;;;10.88;;
26920;SDS011;14483;47.844;9.660;2022-08-19T01:00:06;16.88;;;12.27;;
26920;SDS011;14483;47.844;9.660;2022-08-19T01:02:33;15.18;;;11.77;;
26920;SDS011;14483;47.844;9.660;2022-08-19T01:05:02;14.60;;;11.98;;
26920;SDS011;14483;47.844;9.660;2022-08-19T01:07:29;17.73;;;11.65;;
26920;SDS011;14483;47.844;9.660;2022-08-19T01:09:55;14.93;;;12.10;;
26920;SDS011;14483;47.844;9.660;2022-08-19T01:12:22;16.13;;;12.23;;
26920;SDS011;14483;47.844;9.660;2022-08-19T01:14:48;16.27;;;12.65;;
26920;SDS011;14483;47.844;9.660;2022-08-19T01:17:15;19.58;;;12.85;;
26920;SDS011;14483;47.844;9.660;2022-08-19T01:19:42;16.48;;;11.90;;
26920;SDS011;14483;47.844;9.660;2022-08-19T01:22:11;17.13;;;13.07;;
26920;SDS011;14483;47.844;9.660;2022-08-19T01:24:40;18.13;;;12.88;;
26920;SDS011;14483;47.844;9.660;2022-08-19T01:27:07;16.48;;;12.98;;
26920;SDS011;14483;47.844;9.660;2022-08-19T01:29:34;16.35;;;12.20;;
26920;SDS011;14483;47.844;9.660;2022-08-19T01:32:03;19.38;;;13.07;;
26920;SDS011;14483;47.844;9.660;2022-08-19T01:34:29;15.40;;;12.77;;
26920;SDS011;14483;47.844;9.660;2022-08-19T01:36:56;15.50;;;12.77;;
26920;SDS011;14483;47.844;9.660;2022-08-19T01:39:24;15.93;;;12.20;;
26920;SDS011;14483;47.844;9.660;2022-08-19T01:41:52;17.95;;;12.70;;
26920;SDS011;14483;47.844;9.660;2022-08-19T01:44:19;17.52;;;13.68;;
26920;SDS011;14483;47.844;9.660;2022-08-19T01:46:48;18.35;;;12.88;;
26920;SDS011;14483;47.844;9.660;2022-08-19T01:49:16;15.77;;;12.52;;
26920;SDS011;14483;47.844;9.660;2022-08-19T01:51:42;15.55;;;12.25;;
26920;SDS011;14483;47.844;9.660;2022-08-19T01:54:09;16.40;;;12.05;;
26920;SDS011;14483;47.844;9.660;2022-08-19T01:56:35;17.83;;;12.45;;
26920;SDS011;14483;47.844;9.660;2022-08-19T01:59:04;16.73;;;12.43;;
26920;SDS011;14483;47.844;9.660;2022-08-19T02:01:34;15.07;;;12.60;;
26920;SDS011;14483;47.844;9.660;2022-08-19T02:04:00;17.10;;;12.80;;
26920;SDS011;14483;47.844;9.660;2022-08-19T02:06:27;19.88;;;12.48;;
26920;SDS011;14483;47.844;9.660;2022-08-19T02:08:53;17.70;;;13.18;;
26920;SDS011;14483;47.844;9.660;2022-08-19T02:11:21;19.23;;;13.75;;
26920;SDS011;14483;47.844;9.660;2022-08-19T02:13:47;18.33;;;13.38;;
26920;SDS011;14483;47.844;9.660;2022-08-19T02:16:16;16.75;;;13.35;;
26920;SDS011;14483;47.844;9.660;2022-08-19T02:18:43;17.58;;;14.38;;
26920;SDS011;14483;47.844;9.660;2022-08-19T02:21:09;17.85;;;13.75;;
26920;SDS011;14483;47.844;9.660;2022-08-19T02:23:35;22.30;;;14.20;;
26920;SDS011;14483;47.844;9.660;2022-08-19T02:26:02;18.10;;;13.43;;
26920;SDS011;14483;47.844;9.660;2022-08-19T02:28:28;18.52;;;13.00;;
26920;SDS011;14483;47.844;9.660;2022-08-19T02:30:55;20.02;;;14.60;;
26920;SDS011;14483;47.844;9.660;2022-08-19T02:33:22;20.40;;;14.90;;
26920;SDS011;14483;47.844;9.660;2022-08-19T02:35:49;19.48;;;14.82;;
26920;SDS011;14483;47.844;9.660;2022-08-19T02:38:15;21.08;;;15.30;;
26920;SDS011;14483;47.844;9.660;2022-08-19T02:40:54;19.08;;;14.52;;
26920;SDS011;14483;47.844;9.660;2022-08-19T02:43:22;19.98;;;15.13;;
26920;SDS011;14483;47.844;9.660;2022-08-19T02:45:48;18.50;;;14.73;;
26920;SDS011;14483;47.844;9.660;2022-08-19T02:48:16;21.85;;;14.90;;
26920;SDS011;14483;47.844;9.660;2022-08-19T02:50:45;19.55;;;14.52;;
26920;SDS011;14483;47.844;9.660;2022-08-19T02:53:11;20.40;;;15.73;;
26920;SDS011;14483;47.844;9.660;2022-08-19T02:55:42;21.15;;;14.82;;
26920;SDS011;14483;47.844;9.660;2022-08-19T02:58:09;20.45;;;14.45;;
26920;SDS011;14483;47.844;9.660;2022-08-19T03:00:35;20.00;;;14.93;;
26920;SDS011;14483;47.844;9.660;2022-08-19T03:03:02;19.95;;;15.38;;
26920;SDS011;14483;47.844;9.660;2022-08-19T03:05:28;20.33;;;14.27;;
26920;SDS011;14483;47.844;9.660;2022-08-19T03:07:56;18.00;;;13.27;;
26920;SDS011;14483;47.844;9.660;2022-08-19T03:10:23;21.02;;;15.43;;
26920;SDS011;14483;47.844;9.660;2022-08-19T03:12:49;16.83;;;14.20;;
26920;SDS011;14483;47.844;9.660;2022-08-19T03:15:15;17.13;;;13.30;;
26920;SDS011;14483;47.844;9.660;2022-08-19T03:17:42;18.27;;;13.85;;
26920;SDS011;14483;47.844;9.660;2022-08-19T03:20:08;16.60;;;13.45;;
26920;SDS011;14483;47.844;9.660;2022-08-19T03:22:35;18.95;;;12.95;;
26920;SDS011;14483;47.844;9.660;2022-08-19T03:25:03;17.13;;;13.50;;
26920;SDS011;14483;47.844;9.660;2022-08-19T03:27:29;18.40;;;14.07;;
26920;SDS011;14483;47.844;9.660;2022-08-19T03:29:55;20.05;;;13.68;;
26920;SDS011;14483;47.844;9.660;2022-08-19T03:32:22;21.25;;;14.07;;
26920;SDS011;14483;47.844;9.660;2022-08-19T03:34:48;18.80;;;13.55;;
26920;SDS011;14483;47.844;9.660;2022-08-19T03:37:15;19.67;;;13.93;;
26920;SDS011;14483;47.844;9.660;2022-08-19T03:39:42;15.65;;;11.85;;
26920;SDS011;14483;47.844;9.660;2022-08-19T03:42:10;17.80;;;13.10;;
26920;SDS011;14483;47.844;9.660;2022-08-19T03:44:37;18.10;;;12.55;;
26920;SDS011;14483;47.844;9.660;2022-08-19T03:47:04;18.33;;;13.70;;
26920;SDS011;14483;47.844;9.660;2022-08-19T03:49:31;16.20;;;12.90;;
26920;SDS011;14483;47.844;9.660;2022-08-19T03:51:58;22.58;;;14.98;;
26920;SDS011;14483;47.844;9.660;2022-08-19T03:54:25;17.88;;;13.88;;
26920;SDS011;14483;47.844;9.660;2022-08-19T03:56:53;18.10;;;13.98;;
26920;SDS011;14483;47.844;9.660;2022-08-19T03:59:22;23.30;;;14.68;;
26920;SDS011;14483;47.844;9.660;2022-08-19T04:01:50;22.58;;;14.25;;
26920;SDS011;14483;47.844;9.660;2022-08-19T04:04:16;20.42;;;15.32;;
26920;SDS011;14483;47.844;9.660;2022-08-19T04:06:42;21.20;;;13.95;;
26920;SDS011;14483;47.844;9.660;2022-08-19T04:09:09;20.48;;;14.98;;
26920;SDS011;14483;47.844;9.660;2022-08-19T04:11:37;17.25;;;13.27;;
26920;SDS011;14483;47.844;9.660;2022-08-19T04:14:06;20.27;;;15.27;;
26920;SDS011;14483;47.844;9.660;2022-08-19T04:16:34;21.15;;;15.10;;
26920;SDS011;14483;47.844;9.660;2022-08-19T04:19:01;18.17;;;14.30;;
26920;SDS011;14483;47.844;9.660;2022-08-19T04:21:27;21.35;;;15.60;;
26920;SDS011;14483;47.844;9.660;2022-08-19T04:23:54;19.30;;;14.70;;
26920;SDS011;14483;47.844;9.660;2022-08-19T04:26:21;21.00;;;15.55;;
26920;SDS011;14483;47.844;9.660;2022-08-19T04:28:48;20.05;;;15.90;;
26920;SDS011;14483;47.844;9.660;2022-08-19T04:31:17;21.73;;;14.50;;
26920;SDS011;14483;47.844;9.660;2022-08-19T04:33:45;19.25;;;15.13;;
26920;SDS011;14483;47.844;9.660;2022-08-19T04:36:15;19.83;;;15.23;;
26920;SDS011;14483;47.844;9.660;2022-08-19T04:38:42;20.98;;;15.75;;
26920;SDS011;14483;47.844;9.660;2022-08-19T04:41:08;22.08;;;15.85;;
26920;SDS011;14483;47.844;9.660;2022-08-19T04:43:52;21.50;;;16.23;;
26920;SDS011;14483;47.844;9.660;2022-08-19T04:46:18;19.00;;;14.93;;
26920;SDS011;14483;47.844;9.660;2022-08-19T04:48:46;22.17;;;15.88;;
26920;SDS011;14483;47.844;9.660;2022-08-19T04:51:12;17.75;;;12.80;;
26920;SDS011;14483;47.844;9.660;2022-08-19T04:53:39;17.08;;;12.70;;
26920;SDS011;14483;47.844;9.660;2022-08-19T04:56:07;20.58;;;15.15;;
26920;SDS011;14483;47.844;9.660;2022-08-19T04:58:34;18.38;;;13.57;;
26920;SDS011;14483;47.844;9.660;2022-08-19T05:01:01;16.50;;;12.45;;
26920;SDS011;14483;47.844;9.660;2022-08-19T05:03:27;17.05;;;13.30;;
26920;SDS011;14483;47.844;9.660;2022-08-19T05:05:59;17.63;;;12.82;;
26920;SDS011;14483;47.844;9.660;2022-08-19T05:08:29;15.93;;;11.88;;
26920;SDS011;14483;47.844;9.660;2022-08-19T05:10:56;14.35;;;10.80;;
26920;SDS011;14483;47.844;9.660;2022-08-19T05:13:23;15.90;;;11.77;;
26920;SDS011;14483;47.844;9.660;2022-08-19T05:15:53;17.77;;;12.40;;
26920;SDS011;14483;47.844;9.660;2022-08-19T05:18:19;18.40;;;12.65;;
26920;SDS011;14483;47.844;9.660;2022-08-19T05:21:06;19.05;;;12.75;;
26920;SDS011;14483;47.844;9.660;2022-08-19T05:23:50;17.23;;;12.20;;
26920;SDS011;14483;47.844;9.660;2022-08-19T05:26:17;19.58;;;12.98;;
26920;SDS011;14483;47.844;9.660;2022-08-19T05:28:43;18.55;;;12.18;;
26920;SDS011;14483;47.844;9.660;2022-08-19T05:31:09;20.30;;;12.73;;
26920;SDS011;14483;47.844;9.660;2022-08-19T05:33:36;20.75;;;14.55;;
26920;SDS011;14483;47.844;9.660;2022-08-19T05:36:04;20.80;;;13.88;;
26920;SDS011;14483;47.844;9.660;2022-08-19T05:38:33;18.77;;;13.90;;
26920;SDS011;14483;47.844;9.660;2022-08-19T05:41:00;17.98;;;12.20;;
26920;SDS011;14483;47.844;9.660;2022-08-19T05:43:27;15.60;;;11.15;;
26920;SDS011;14483;47.844;9.660;2022-08-19T05:45:54;15.15;;;10.40;;
26920;SDS011;14483;47.844;9.660;2022-08-19T05:48:20;13.13;;;10.48;;
26920;SDS011;14483;47.844;9.660;2022-08-19T05:50:46;18.83;;;10.68;;
26920;SDS011;14483;47.844;9.660;2022-08-19T05:53:15;13.60;;;10.45;;
26920;SDS011;14483;47.844;9.660;2022-08-19T05:55:43;14.93;;;9.95;;
26920;SDS011;14483;47.844;9.660;2022-08-19T05:58:09;13.10;;;9.05;;
26920;SDS011;14483;47.844;9.660;2022-08-19T06:00:36;12.85;;;9.45;;
26920;SDS011;14483;47.844;9.660;2022-08-19T06:03:02;15.20;;;10.18;;
26920;SDS011;14483;47.844;9.660;2022-08-19T06:05:29;14.63;;;10.80;;
26920;SDS011;14483;47.844;9.660;2022-08-19T06:07:55;15.55;;;10.38;;
26920;SDS011;14483;47.844;9.660;2022-08-19T06:10:22;15.07;;;10.57;;
26920;SDS011;14483;47.844;9.660;2022-08-19T06:12:50;12.43;;;9.60;;
26920;SDS011;14483;47.844;9.660;2022-08-19T06:15:16;14.48;;;10.23;;
26920;SDS011;14483;47.844;9.660;2022-08-19T06:17:43;16.75;;;11.07;;
26920;SDS011;14483;47.844;9.660;2022-08-19T06:20:11;16.27;;;11.65;;
26920;SDS011;14483;47.844;9.660;2022-08-19T06:22:38;14.60;;;10.70;;
26920;SDS011;14483;47.844;9.660;2022-08-19T06:25:05;17.05;;;12.20;;
26920;SDS011;14483;47.844;9.660;2022-08-19T06:27:32;17.92;;;12.82;;
26920;SDS011;14483;47.844;9.660;2022-08-19T06:30:00;17.13;;;12.35;;
26920;SDS011;14483;47.844;9.660;2022-08-19T06:32:26;19.35;;;13.85;;
26920;SDS011;14483;47.844;9.660;2022-08-19T06:34:53;21.30;;;14.65;;
26920;SDS011;14483;47.844;9.660;2022-08-19T06:37:20;18.20;;;13.63;;
26920;SDS011;14483;47.844;9.660;2022-08-19T06:39:47;19.98;;;13.68;;
26920;SDS011;14483;47.844;9.660;2022-08-19T06:42:14;21.38;;;15.15;;
26920;SDS011;14483;47.844;9.660;2022-08-19T06:44:42;20.20;;;13.38;;
26920;SDS011;14483;47.844;9.660;2022-08-19T06:47:10;20.80;;;14.07;;
26920;SDS011;14483;47.844;9.660;2022-08-19T06:49:37;20.77;;;14.25;;
26920;SDS011;14483;47.844;9.660;2022-08-19T06:52:04;22.20;;;15.48;;
26920;SDS011;14483;47.844;9.660;2022-08-19T06:54:30;22.33;;;13.45;;
26920;SDS011;14483;47.844;9.660;2022-08-19T06:56:57;19.10;;;14.27;;
26920;SDS011;14483;47.844;9.660;2022-08-19T06:59:27;20.42;;;13.38;;
26920;SDS011;14483;47.844;9.660;2022-08-19T07:01:55;20.88;;;13.48;;
26920;SDS011;14483;47.844;9.660;2022-08-19T07:04:23;17.00;;;12.02;;
26920;SDS011;14483;47.844;9.660;2022-08-19T07:06:55;22.05;;;14.05;;
26920;SDS011;14483;47.844;9.660;2022-08-19T07:09:22;23.30;;;13.45;;
26920;SDS011;14483;47.844;9.660;2022-08-19T07:11:49;22.40;;;13.02;;
26920;SDS011;14483;47.844;9.660;2022-08-19T07:14:16;18.80;;;13.45;;
26920;SDS011;14483;47.844;9.660;2022-08-19T07:16:43;23.70;;;15.07;;
26920;SDS011;14483;47.844;9.660;2022-08-19T07:19:10;21.70;;;14.15;;
26920;SDS011;14483;47.844;9.660;2022-08-19T07:21:37;24.77;;;16.38;;
26920;SDS011;14483;47.844;9.660;2022-08-19T07:24:04;24.92;;;16.05;;
26920;SDS011;14483;47.844;9.660;2022-08-19T07:26:31;24.98;;;15.18;;
26920;SDS011;14483;47.844;9.660;2022-08-19T07:28:58;23.23;;;15.82;;
26920;SDS011;14483;47.844;9.660;2022-08-19T07:31:27;27.08;;;17.42;;
26920;SDS011;14483;47.844;9.660;2022-08-19T07:33:54;27.60;;;18.73;;
26920;SDS011;14483;47.844;9.660;2022-08-19T07:36:23;31.48;;;18.98;;
26920;SDS011;14483;47.844;9.660;2022-08-19T07:38:51;29.85;;;18.80;;
26920;SDS011;14483;47.844;9.660;2022-08-19T07:41:20;28.95;;;17.85;;
26920;SDS011;14483;47.844;9.660;2022-08-19T07:43:46;29.27;;;18.42;;
26920;SDS011;14483;47.844;9.660;2022-08-19T07:46:13;28.85;;;18.05;;
26920;SDS011;14483;47.844;9.660;2022-08-19T07:48:40;31.08;;;18.00;;
26920;SDS011;14483;47.844;9.660;2022-08-19T07:51:07;29.50;;;19.27;;
26920;SDS011;14483;47.844;9.660;2022-08-19T07:53:35;31.63;;;20.58;;
26920;SDS011;14483;47.844;9.660;2022-08-19T07:56:03;34.42;;;21.00;;
26920;SDS011;14483;47.844;9.660;2022-08-19T07:58:30;35.95;;;22.05;;
26920;SDS011;14483;47.844;9.660;2022-08-19T08:00:57;32.20;;;20.50;;
26920;SDS011;14483;47.844;9.660;2022-08-19T08:03:23;34.17;;;21.92;;
26920;SDS011;14483;47.844;9.660;2022-08-19T08:06:10;37.65;;;22.38;;
26920;SDS011;14483;47.844;9.660;2022-08-19T08:08:54;36.75;;;23.27;;
26920;SDS011;14483;47.844;9.660;2022-08-19T08:11:46;36.22;;;22.67;;
26920;SDS011;14483;47.844;9.660;2022-08-19T08:14:14;35.20;;;22.17;;
26920;SDS011;14483;47.844;9.660;2022-08-19T08:16:40;39.47;;;22.48;;
26920;SDS011;14483;47.844;9.660;2022-08-19T08:19:09;40.88;;;23.27;;
26920;SDS011;14483;47.844;9.660;2022-08-19T08:21:35;37.45;;;23.38;;
26920;SDS011;14483;47.844;9.660;2022-08-19T08:24:02;38.10;;;23.77;;
26920;SDS011;14483;47.844;9.660;2022-08-19T08:26:28;38.45;;;22.13;;
26920;SDS011;14483;47.844;9.660;2022-08-19T08:28:56;35.85;;;21.63;;
26920;SDS011;14483;47.844;9.660;2022-08-19T08:31:22;37.22;;;23.55;;
26920;SDS011;14483;47.844;9.660;2022-08-19T08:33:49;39.20;;;22.63;;
26920;SDS011;14483;47.844;9.660;2022-08-19T08:36:16;35.60;;;21.85;;
26920;SDS011;14483;47.844;9.660;2022-08-19T08:38:43;38.08;;;23.35;;
26920;SDS011;14483;47.844;9.660;2022-08-19T08:41:13;35.05;;;22.33;;
26920;SDS011;14483;47.844;9.660;2022-08-19T08:43:45;36.58;;;22.88;;
26920;SDS011;14483;47.844;9.660;2022-08-19T08:46:14;39.47;;;24.42;;
26920;SDS011;14483;47.844;9.660;2022-08-19T08:48:44;38.38;;;24.13;;
26920;SDS011;14483;47.844;9.660;2022-08-19T08:51:16;40.83;;;23.95;;
26920;SDS011;14483;47.844;9.660;2022-08-19T08:53:44;39.25;;;23.73;;
26920;SDS011;14483;47.844;9.660;2022-08-19T08:56:12;44.97;;;26.77;;
26920;SDS011;14483;47.844;9.660;2022-08-19T08:58:42;42.03;;;25.48;;
26920;SDS011;14483;47.844;9.660;2022-08-19T09:01:11;42.08;;;25.42;;
26920;SDS011;14483;47.844;9.660;2022-08-19T09:03:39;41.80;;;26.30;;
26920;SDS011;14483;47.844;9.660;2022-08-19T09:06:07;43.50;;;27.25;;
26920;SDS011;14483;47.844;9.660;2022-08-19T09:08:39;41.72;;;27.02;;
26920;SDS011;14483;47.844;9.660;2022-08-19T09:11:07;43.22;;;26.58;;
26920;SDS011;14483;47.844;9.660;2022-08-19T09:13:35;50.47;;;27.73;;
26920;SDS011;14483;47.844;9.660;2022-08-19T09:16:05;47.40;;;27.77;;
26920;SDS011;14483;47.844;9.660;2022-08-19T09:18:39;50.45;;;28.98;;
26920;SDS011;14483;47.844;9.660;2022-08-19T09:21:06;46.50;;;26.88;;
26920;SDS011;14483;47.844;9.660;2022-08-19T09:23:33;45.17;;;27.23;;
26920;SDS011;14483;47.844;9.660;2022-08-19T09:26:00;45.80;;;26.70;;
26920;SDS011;14483;47.844;9.660;2022-08-19T09:28:26;41.88;;;26.55;;
26920;SDS011;14483;47.844;9.660;2022-08-19T09:30:53;37.55;;;23.90;;
26920;SDS011;14483;47.844;9.660;2022-08-19T09:33:19;40.88;;;24.88;;
26920;SDS011;14483;47.844;9.660;2022-08-19T09:35:47;37.90;;;23.77;;
26920;SDS011;14483;47.844;9.660;2022-08-19T09:38:13;38.55;;;23.83;;
26920;SDS011;14483;47.844;9.660;2022-08-19T09:40:40;40.42;;;26.10;;
26920;SDS011;14483;47.844;9.660;2022-08-19T09:43:06;38.45;;;23.20;;
26920;SDS011;14483;47.844;9.660;2022-08-19T09:45:33;37.28;;;24.75;;
26920;SDS011;14483;47.844;9.660;2022-08-19T09:48:00;39.50;;;24.85;;
26920;SDS011;14483;47.844;9.660;2022-08-19T09:50:26;38.13;;;23.15;;
26920;SDS011;14483;47.844;9.660;2022-08-19T09:52:54;39.63;;;23.70;;
26920;SDS011;14483;47.844;9.660;2022-08-19T09:55:21;34.45;;;23.45;;
26920;SDS011;14483;47.844;9.660;2022-08-19T09:57:48;36.40;;;22.67;;
26920;SDS011;14483;47.844;9.660;2022-08-19T10:00:14;39.58;;;24.10;;
26920;SDS011;14483;47.844;9.660;2022-08-19T10:02:41;41.72;;;25.70;;
26920;SDS011;14483;47.844;9.660;2022-08-19T10:05:07;41.03;;;23.90;;
26920;SDS011;14483;47.844;9.660;2022-08-19T10:07:51;36.50;;;22.98;;
26920;SDS011;14483;47.844;9.660;2022-08-19T10:10:19;38.30;;;21.90;;
26920;SDS011;14483;47.844;9.660;2022-08-19T10:12:45;35.88;;;22.55;;
26920;SDS011;14483;47.844;9.660;2022-08-19T10:15:12;39.33;;;24.67;;
26920;SDS011;14483;47.844;9.660;2022-08-19T10:17:38;34.08;;;23.05;;
26920;SDS011;14483;47.844;9.660;2022-08-19T10:20:05;40.58;;;24.17;;
26920;SDS011;14483;47.844;9.660;2022-08-19T10:22:32;33.15;;;23.75;;
26920;SDS011;14483;47.844;9.660;2022-08-19T10:25:00;38.33;;;23.98;;
26920;SDS011;14483;47.844;9.660;2022-08-19T10:27:28;38.60;;;23.17;;
26920;SDS011;14483;47.844;9.660;2022-08-19T10:29:56;35.38;;;23.98;;
26920;SDS011;14483;47.844;9.660;2022-08-19T10:32:22;37.35;;;22.73;;
26920;SDS011;14483;47.844;9.660;2022-08-19T10:34:50;38.20;;;22.42;;
26920;SDS011;14483;47.844;9.660;2022-08-19T10:37:17;36.83;;;23.73;;
26920;SDS011;14483;47.844;9.660;2022-08-19T10:39:45;34.85;;;23.23;;
26920;SDS011;14483;47.844;9.660;2022-08-19T10:42:13;36.00;;;23.17;;
26920;SDS011;14483;47.844;9.660;2022-08-19T10:44:42;33.63;;;20.92;;
26920;SDS011;14483;47.844;9.660;2022-08-19T10:47:08;38.35;;;24.30;;
26920;SDS011;14483;47.844;9.660;2022-08-19T10:49:35;36.15;;;23.15;;
26920;SDS011;14483;47.844;9.660;2022-08-19T10:52:22;34.58;;;23.50;;
26920;SDS011;14483;47.844;9.660;2022-08-19T10:55:00;37.83;;;23.55;;
26920;SDS011;14483;47.844;9.660;2022-08-19T10:57:43;35.55;;;22.83;;
26920;SDS011;14483;47.844;9.660;2022-08-19T11:00:12;39.25;;;24.25;;
26920;SDS011;14483;47.844;9.660;2022-08-19T11:02:38;33.95;;;21.95;;
26920;SDS011;14483;47.844;9.660;2022-08-19T11:05:06;38.53;;;22.05;;
26920;SDS011;14483;47.844;9.660;2022-08-19T11:07:35;38.78;;;23.05;;
26920;SDS011;14483;47.844;9.660;2022-08-19T11:10:02;41.95;;;24.52;;
26920;SDS011;14483;47.844;9.660;2022-08-19T11:12:29;35.88;;;22.55;;
26920;SDS011;14483;47.844;9.660;2022-08-19T11:14:55;42.70;;;25.42;;
26920;SDS011;14483;47.844;9.660;2022-08-19T11:17:23;35.47;;;22.88;;
26920;SDS011;14483;47.844;9.660;2022-08-19T11:19:49;39.13;;;23.48;;
26920;SDS011;14483;47.844;9.660;2022-08-19T11:22:16;39.40;;;23.60;;
26920;SDS011;14483;47.844;9.660;2022-08-19T11:24:42;39.97;;;23.35;;
26920;SDS011;14483;47.844;9.660;2022-08-19T11:27:09;33.22;;;22.15;;
26920;SDS011;14483;47.844;9.660;2022-08-19T11:29:37;33.40;;;22.33;;
26920;SDS011;14483;47.844;9.660;2022-08-19T11:32:04;31.60;;;21.05;;
26920;SDS011;14483;47.844;9.660;2022-08-19T11:34:33;32.10;;;21.50;;
26920;SDS011;14483;47.844;9.660;2022-08-19T11:37:00;30.67;;;21.20;;
26920;SDS011;14483;47.844;9.660;2022-08-19T11:39:29;34.65;;;23.67;;
26920;SDS011;14483;47.844;9.660;2022-08-19T11:41:57;32.25;;;21.20;;
26920;SDS011;14483;47.844;9.660;2022-08-19T11:44:23;30.45;;;21.65;;
26920;SDS011;14483;47.844;9.660;2022-08-19T11:46:50;34.65;;;20.67;;
26920;SDS011;14483;47.844;9.660;2022-08-19T11:49:18;28.33;;;19.38;;
26920;SDS011;14483;47.844;9.660;2022-08-19T11:51:46;31.42;;;21.73;;
26920;SDS011;14483;47.844;9.660;2022-08-19T11:54:15;30.92;;;19.48;;
26920;SDS011;14483;47.844;9.660;2022-08-19T11:56:42;31.10;;;20.33;;
26920;SDS011;14483;47.844;9.660;2022-08-19T11:59:08;29.63;;;20.13;;
26920;SDS011;14483;47.844;9.660;2022-08-19T12:01:35;27.48;;;18.02;;
26920;SDS011;14483;47.844;9.660;2022-08-19T12:04:02;25.88;;;17.80;;
26920;SDS011;14483;47.844;9.660;2022-08-19T12:06:30;25.52;;;17.45;;
26920;SDS011;14483;47.844;9.660;2022-08-19T12:09:01;21.40;;;15.77;;
26920;SDS011;14483;47.844;9.660;2022-08-19T12:11:28;20.83;;;15.23;;
26920;SDS011;14483;47.844;9.660;2022-08-19T12:13:54;23.92;;;15.80;;
26920;SDS011;14483;47.844;9.660;2022-08-19T12:16:22;25.73;;;16.35;;
26920;SDS011;14483;47.844;9.660;2022-08-19T12:18:48;25.10;;;17.25;;
26920;SDS011;14483;47.844;9.660;2022-08-19T12:21:16;23.50;;;16.20;;
26920;SDS011;14483;47.844;9.660;2022-08-19T12:23:43;21.77;;;14.65;;
26920;SDS011;14483;47.844;9.660;2022-08-19T12:26:11;22.10;;;15.60;;
26920;SDS011;14483;47.844;9.660;2022-08-19T12:28:38;21.95;;;14.93;;
26920;SDS011;14483;47.844;9.660;2022-08-19T12:31:04;22.02;;;15.15;;
26920;SDS011;14483;47.844;9.660;2022-08-19T12:33:31;20.10;;;14.52;;
26920;SDS011;14483;47.844;9.660;2022-08-19T12:36:00;20.33;;;14.57;;
26920;SDS011;14483;47.844;9.660;2022-08-19T12:38:27;19.42;;;13.48;;
26920;SDS011;14483;47.844;9.660;2022-08-19T12:40:53;18.00;;;13.52;;
26920;SDS011;14483;47.844;9.660;2022-08-19T12:43:21;19.00;;;12.88;;
26920;SDS011;14483;47.844;9.660;2022-08-19T12:45:48;19.92;;;13.10;;
26920;SDS011;14483;47.844;9.660;2022-08-19T12:48:15;20.38;;;13.65;;
26920;SDS011;14483;47.844;9.660;2022-08-19T12:50:42;19.80;;;13.23;;
26920;SDS011;14483;47.844;9.660;2022-08-19T12:53:10;18.15;;;12.88;;
26920;SDS011;14483;47.844;9.660;2022-08-19T12:55:36;19.83;;;13.30;;
26920;SDS011;14483;47.844;9.660;2022-08-19T12:58:03;17.90;;;11.60;;
26920;SDS011;14483;47.844;9.660;2022-08-19T13:00:31;18.27;;;13.27;;
26920;SDS011;14483;47.844;9.660;2022-08-19T13:02:58;18.77;;;12.98;;
26920;SDS011;14483;47.844;9.660;2022-08-19T13:05:25;17.52;;;12.02;;
26920;SDS011;14483;47.844;9.660;2022-08-19T13:07:53;18.15;;;12.25;;
26920;SDS011;14483;47.844;9.660;2022-08-19T13:10:21;17.70;;;12.68;;
26920;SDS011;14483;47.844;9.660;2022-08-19T13:12:48;15.63;;;11.55;;
26920;SDS011;14483;47.844;9.660;2022-08-19T13:15:15;15.88;;;11.13;;
26920;SDS011;14483;47.844;9.660;2022-08-19T13:17:46;16.98;;;11.85;;
26920;SDS011;14483;47.844;9.660;2022-08-19T13:20:14;17.95;;;11.77;;
26920;SDS011;14483;47.844;9.660;2022-08-19T13:22:41;15.65;;;11.35;;
26920;SDS011;14483;47.844;9.660;2022-08-19T13:25:08;13.63;;;10.55;;
26920;SDS011;14483;47.844;9.660;2022-08-19T13:27:34;17.05;;;12.23;;
26920;SDS011;14483;47.844;9.660;2022-08-19T13:30:01;14.10;;;10.38;;
26920;SDS011;14483;47.844;9.660;2022-08-19T13:32:47;14.55;;;10.02;;
26920;SDS011;14483;47.844;9.660;2022-08-19T13:35:31;15.10;;;9.52;;
26920;SDS011;14483;47.844;9.660;2022-08-19T13:37:58;12.40;;;9.38;;
26920;SDS011;14483;47.844;9.660;2022-08-19T13:40:30;14.18;;;10.23;;
26920;SDS011;14483;47.844;9.660;2022-08-19T13:42:58;12.20;;;9.27;;
26920;SDS011;14483;47.844;9.660;2022-08-19T13:45:27;12.48;;;9.38;;
26920;SDS011;14483;47.844;9.660;2022-08-19T13:47:55;12.52;;;8.85;;
26920;SDS011;14483;47.844;9.660;2022-08-19T13:50:23;11.10;;;8.35;;
26920;SDS011;14483;47.844;9.660;2022-08-19T13:52:50;11.02;;;8.65;;
26920;SDS011;14483;47.844;9.660;2022-08-19T13:55:16;10.30;;;8.20;;
26920;SDS011;14483;47.844;9.660;2022-08-19T13:57:43;10.07;;;8.10;;
26920;SDS011;14483;47.844;9.660;2022-08-19T14:00:11;12.27;;;9.15;;
26920;SDS011;14483;47.844;9.660;2022-08-19T14:02:39;9.70;;;7.88;;
26920;SDS011;14483;47.844;9.660;2022-08-19T14:05:08;11.27;;;8.45;;
26920;SDS011;14483;47.844;9.660;2022-08-19T14:07:35;13.57;;;8.40;;
26920;SDS011;14483;47.844;9.660;2022-08-19T14:10:02;10.63;;;8.90;;
26920;SDS011;14483;47.844;9.660;2022-08-19T14:12:29;11.45;;;9.05;;
26920;SDS011;14483;47.844;9.660;2022-08-19T14:14:57;11.88;;;9.50;;
26920;SDS011;14483;47.844;9.660;2022-08-19T14:17:23;13.00;;;9.45;;
26920;SDS011;14483;47.844;9.660;2022-08-19T14:19:49;10.68;;;8.55;;
26920;SDS011;14483;47.844;9.660;2022-08-19T14:22:18;11.02;;;8.98;;
26920;SDS011;14483;47.844;9.660;2022-08-19T14:24:45;15.73;;;10.75;;
26920;SDS011;14483;47.844;9.660;2022-08-19T14:27:12;10.63;;;9.35;;